sensor_id;sensor_type;location;lat;lon;timestamp;temperature;humidity
8872;DHT22;4472;52.092;9.820;2023-03-03T00:01:13;0.80;99.90
8872;DHT22;4472;52.092;9.820;2023-03-03T00:04:01;0.80;99.90
8872;DHT22;4472;52.092;9.820;2023-03-03T00:06:49;0.80;99.90
8872;DHT22;4472;52.092;9.820;2023-03-03T00:09:36;0.80;99.90
8872;DHT22;4472;52.092;9.820;2023-03-03T00:12:26;0.80;99.90
8872;DHT22;4472;52.092;9.820;2023-03-03T00:15:15;0.70;99.90
8872;DHT22;4472;52.092;9.820;2023-03-03T00:18:13;0.80;99.90
8872;DHT22;4472;52.092;9.820;2023-03-03T00:21:22;0.80;99.90
8872;DHT22;4472;52.092;9.820;2023-03-03T00:24:16;0.80;99.90
8872;DHT22;4472;52.092;9.820;2023-03-03T00:27:16;0.80;99.90
8872;DHT22;4472;52.092;9.820;2023-03-03T00:30:16;0.90;99.90
8872;DHT22;4472;52.092;9.820;2023-03-03T00:33:18;0.90;99.90
8872;DHT22;4472;52.092;9.820;2023-03-03T00:36:27;0.80;99.90
8872;DHT22;4472;52.092;9.820;2023-03-03T00:39:21;0.80;99.90
8872;DHT22;4472;52.092;9.820;2023-03-03T00:42:11;0.80;99.90
8872;DHT22;4472;52.092;9.820;2023-03-03T00:44:59;0.80;99.90
8872;DHT22;4472;52.092;9.820;2023-03-03T00:47:47;0.80;99.90
8872;DHT22;4472;52.092;9.820;2023-03-03T00:50:34;0.80;99.90
8872;DHT22;4472;52.092;9.820;2023-03-03T00:53:25;0.80;99.90
8872;DHT22;4472;52.092;9.820;2023-03-03T00:56:12;0.80;99.90
8872;DHT22;4472;52.092;9.820;2023-03-03T00:59:00;0.80;99.90
8872;DHT22;4472;52.092;9.820;2023-03-03T01:01:47;0.80;99.90
8872;DHT22;4472;52.092;9.820;2023-03-03T01:04:34;0.80;99.90
8872;DHT22;4472;52.092;9.820;2023-03-03T01:07:21;0.80;99.90
8872;DHT22;4472;52.092;9.820;2023-03-03T01:10:10;0.80;99.90
8872;DHT22;4472;52.092;9.820;2023-03-03T01:12:58;0.80;99.90
8872;DHT22;4472;52.092;9.820;2023-03-03T01:15:45;0.80;99.90
8872;DHT22;4472;52.092;9.820;2023-03-03T01:18:33;0.80;99.90
8872;DHT22;4472;52.092;9.820;2023-03-03T01:21:20;0.80;99.90
8872;DHT22;4472;52.092;9.820;2023-03-03T01:24:08;0.70;99.90
8872;DHT22;4472;52.092;9.820;2023-03-03T01:26:56;0.70;99.90
8872;DHT22;4472;52.092;9.820;2023-03-03T01:29:44;0.60;99.90
8872;DHT22;4472;52.092;9.820;2023-03-03T01:32:31;0.50;99.90
8872;DHT22;4472;52.092;9.820;2023-03-03T01:35:18;0.50;99.90
8872;DHT22;4472;52.092;9.820;2023-03-03T01:38:05;0.40;99.90
8872;DHT22;4472;52.092;9.820;2023-03-03T01:40:53;0.30;99.90
8872;DHT22;4472;52.092;9.820;2023-03-03T01:43:45;0.30;99.90
8872;DHT22;4472;52.092;9.820;2023-03-03T01:46:44;0.20;99.90
8872;DHT22;4472;52.092;9.820;2023-03-03T01:49:34;0.20;99.90
8872;DHT22;4472;52.092;9.820;2023-03-03T01:52:24;0.20;99.90
8872;DHT22;4472;52.092;9.820;2023-03-03T01:55:16;0.20;99.90
8872;DHT22;4472;52.092;9.820;2023-03-03T01:58:09;0.10;99.90
8872;DHT22;4472;52.092;9.820;2023-03-03T02:00:59;0.20;99.90
8872;DHT22;4472;52.092;9.820;2023-03-03T02:03:47;0.10;99.90
8872;DHT22;4472;52.092;9.820;2023-03-03T02:06:38;0.20;99.90
8872;DHT22;4472;52.092;9.820;2023-03-03T02:09:33;0.20;99.90
8872;DHT22;4472;52.092;9.820;2023-03-03T02:12:27;0.20;99.90
8872;DHT22;4472;52.092;9.820;2023-03-03T02:15:19;0.30;99.90
8872;DHT22;4472;52.092;9.820;2023-03-03T02:18:10;0.40;99.90
8872;DHT22;4472;52.092;9.820;2023-03-03T02:21:04;0.50;99.90
8872;DHT22;4472;52.092;9.820;2023-03-03T02:23:59;0.50;99.90
8872;DHT22;4472;52.092;9.820;2023-03-03T02:26:50;0.50;99.90
8872;DHT22;4472;52.092;9.820;2023-03-03T02:29:37;0.50;99.90
8872;DHT22;4472;52.092;9.820;2023-03-03T02:32:25;0.60;99.90
8872;DHT22;4472;52.092;9.820;2023-03-03T02:35:29;0.50;99.90
8872;DHT22;4472;52.092;9.820;2023-03-03T02:38:23;0.60;99.90
8872;DHT22;4472;52.092;9.820;2023-03-03T02:41:17;0.60;99.90
8872;DHT22;4472;52.092;9.820;2023-03-03T02:44:10;0.60;99.90
8872;DHT22;4472;52.092;9.820;2023-03-03T02:46:58;0.60;99.90
8872;DHT22;4472;52.092;9.820;2023-03-03T02:49:45;0.60;99.90
8872;DHT22;4472;52.092;9.820;2023-03-03T02:52:33;0.50;99.90
8872;DHT22;4472;52.092;9.820;2023-03-03T02:55:21;0.30;99.90
8872;DHT22;4472;52.092;9.820;2023-03-03T02:58:08;0.20;99.90
8872;DHT22;4472;52.092;9.820;2023-03-03T03:00:56;0.10;99.90
8872;DHT22;4472;52.092;9.820;2023-03-03T03:03:44;0.00;99.90
8872;DHT22;4472;52.092;9.820;2023-03-03T03:06:31;0.00;99.90
8872;DHT22;4472;52.092;9.820;2023-03-03T03:09:20;-0.10;99.90
8872;DHT22;4472;52.092;9.820;2023-03-03T03:12:07;-0.10;99.90
8872;DHT22;4472;52.092;9.820;2023-03-03T03:14:54;-0.10;99.90
8872;DHT22;4472;52.092;9.820;2023-03-03T03:17:43;-0.10;99.90
8872;DHT22;4472;52.092;9.820;2023-03-03T03:20:30;0.00;99.90
8872;DHT22;4472;52.092;9.820;2023-03-03T03:23:17;0.00;99.90
8872;DHT22;4472;52.092;9.820;2023-03-03T03:26:07;0.10;99.90
8872;DHT22;4472;52.092;9.820;2023-03-03T03:28:55;0.10;99.90
8872;DHT22;4472;52.092;9.820;2023-03-03T03:31:42;0.10;99.90
8872;DHT22;4472;52.092;9.820;2023-03-03T03:34:31;0.20;99.90
8872;DHT22;4472;52.092;9.820;2023-03-03T03:37:18;0.20;99.90
8872;DHT22;4472;52.092;9.820;2023-03-03T03:40:06;0.30;99.90
8872;DHT22;4472;52.092;9.820;2023-03-03T03:42:53;0.30;99.90
8872;DHT22;4472;52.092;9.820;2023-03-03T03:45:42;0.30;99.90
8872;DHT22;4472;52.092;9.820;2023-03-03T03:48:30;0.30;99.90
8872;DHT22;4472;52.092;9.820;2023-03-03T03:51:18;0.30;99.90
8872;DHT22;4472;52.092;9.820;2023-03-03T03:54:06;0.30;99.90
8872;DHT22;4472;52.092;9.820;2023-03-03T03:56:53;0.20;99.90
8872;DHT22;4472;52.092;9.820;2023-03-03T03:59:40;0.30;99.90
8872;DHT22;4472;52.092;9.820;2023-03-03T04:02:27;0.20;99.90
8872;DHT22;4472;52.092;9.820;2023-03-03T04:05:14;0.20;99.90
8872;DHT22;4472;52.092;9.820;2023-03-03T04:08:03;0.10;99.90
8872;DHT22;4472;52.092;9.820;2023-03-03T04:10:50;0.10;99.90
8872;DHT22;4472;52.092;9.820;2023-03-03T04:13:38;0.10;99.90
8872;DHT22;4472;52.092;9.820;2023-03-03T04:16:25;0.10;99.90
8872;DHT22;4472;52.092;9.820;2023-03-03T04:19:12;0.10;99.90
8872;DHT22;4472;52.092;9.820;2023-03-03T04:21:59;0.10;99.90
8872;DHT22;4472;52.092;9.820;2023-03-03T04:24:48;0.10;99.90
8872;DHT22;4472;52.092;9.820;2023-03-03T04:27:36;0.10;99.90
8872;DHT22;4472;52.092;9.820;2023-03-03T04:30:23;0.20;99.90
8872;DHT22;4472;52.092;9.820;2023-03-03T04:33:11;0.20;99.90
8872;DHT22;4472;52.092;9.820;2023-03-03T04:35:58;0.20;99.90
8872;DHT22;4472;52.092;9.820;2023-03-03T04:38:46;0.20;99.90
8872;DHT22;4472;52.092;9.820;2023-03-03T04:41:35;0.30;99.90
8872;DHT22;4472;52.092;9.820;2023-03-03T04:44:22;0.20;99.90
8872;DHT22;4472;52.092;9.820;2023-03-03T04:47:09;0.20;99.90
8872;DHT22;4472;52.092;9.820;2023-03-03T04:49:56;0.20;99.90
8872;DHT22;4472;52.092;9.820;2023-03-03T04:52:43;0.20;99.90
8872;DHT22;4472;52.092;9.820;2023-03-03T04:55:31;0.20;99.90
8872;DHT22;4472;52.092;9.820;2023-03-03T04:58:19;0.20;99.90
8872;DHT22;4472;52.092;9.820;2023-03-03T05:01:09;0.20;99.90
8872;DHT22;4472;52.092;9.820;2023-03-03T05:03:58;0.20;99.90
8872;DHT22;4472;52.092;9.820;2023-03-03T05:06:45;0.20;99.90
8872;DHT22;4472;52.092;9.820;2023-03-03T05:09:33;0.20;99.90
8872;DHT22;4472;52.092;9.820;2023-03-03T05:12:20;0.30;99.90
8872;DHT22;4472;52.092;9.820;2023-03-03T05:15:09;0.20;99.90
8872;DHT22;4472;52.092;9.820;2023-03-03T05:17:57;-0.90;99.90
8872;DHT22;4472;52.092;9.820;2023-03-03T05:20:44;0.20;99.90
8872;DHT22;4472;52.092;9.820;2023-03-03T05:23:31;0.20;99.90
8872;DHT22;4472;52.092;9.820;2023-03-03T05:26:18;0.20;99.90
8872;DHT22;4472;52.092;9.820;2023-03-03T05:29:06;0.20;99.90
8872;DHT22;4472;52.092;9.820;2023-03-03T05:31:55;0.20;99.90
8872;DHT22;4472;52.092;9.820;2023-03-03T05:34:42;0.20;99.90
8872;DHT22;4472;52.092;9.820;2023-03-03T05:37:29;0.30;99.90
8872;DHT22;4472;52.092;9.820;2023-03-03T05:40:16;0.30;99.90
8872;DHT22;4472;52.092;9.820;2023-03-03T05:43:04;0.30;99.90
8872;DHT22;4472;52.092;9.820;2023-03-03T05:45:54;0.40;99.90
8872;DHT22;4472;52.092;9.820;2023-03-03T05:48:43;0.40;99.90
8872;DHT22;4472;52.092;9.820;2023-03-03T05:51:30;0.40;99.90
8872;DHT22;4472;52.092;9.820;2023-03-03T05:54:17;0.40;99.90
8872;DHT22;4472;52.092;9.820;2023-03-03T05:57:05;0.40;99.90
8872;DHT22;4472;52.092;9.820;2023-03-03T05:59:52;0.40;99.90
8872;DHT22;4472;52.092;9.820;2023-03-03T06:02:49;0.40;99.90
8872;DHT22;4472;52.092;9.820;2023-03-03T06:05:38;0.40;99.90
8872;DHT22;4472;52.092;9.820;2023-03-03T06:08:25;0.40;99.90
8872;DHT22;4472;52.092;9.820;2023-03-03T06:11:12;0.50;99.90
8872;DHT22;4472;52.092;9.820;2023-03-03T06:14:01;0.50;99.90
8872;DHT22;4472;52.092;9.820;2023-03-03T06:16:48;0.50;99.90
8872;DHT22;4472;52.092;9.820;2023-03-03T06:19:36;0.40;99.90
8872;DHT22;4472;52.092;9.820;2023-03-03T06:22:25;0.50;99.90
8872;DHT22;4472;52.092;9.820;2023-03-03T06:25:13;0.50;99.90
8872;DHT22;4472;52.092;9.820;2023-03-03T06:28:00;0.50;99.90
8872;DHT22;4472;52.092;9.820;2023-03-03T06:30:47;0.50;99.90
8872;DHT22;4472;52.092;9.820;2023-03-03T06:33:34;0.50;99.90
8872;DHT22;4472;52.092;9.820;2023-03-03T06:36:23;0.40;99.90
8872;DHT22;4472;52.092;9.820;2023-03-03T06:39:11;0.40;99.90
8872;DHT22;4472;52.092;9.820;2023-03-03T06:41:58;0.30;99.90
8872;DHT22;4472;52.092;9.820;2023-03-03T06:44:46;0.30;99.90
8872;DHT22;4472;52.092;9.820;2023-03-03T06:47:33;0.30;99.90
8872;DHT22;4472;52.092;9.820;2023-03-03T06:50:20;0.40;99.90
8872;DHT22;4472;52.092;9.820;2023-03-03T06:53:12;0.40;99.90
8872;DHT22;4472;52.092;9.820;2023-03-03T06:56:01;0.50;99.90
8872;DHT22;4472;52.092;9.820;2023-03-03T06:58:48;0.50;99.90
8872;DHT22;4472;52.092;9.820;2023-03-03T07:01:37;0.50;99.90
8872;DHT22;4472;52.092;9.820;2023-03-03T07:04:27;0.60;99.90
8872;DHT22;4472;52.092;9.820;2023-03-03T07:07:17;0.70;99.90
8872;DHT22;4472;52.092;9.820;2023-03-03T07:10:12;0.80;99.90
8872;DHT22;4472;52.092;9.820;2023-03-03T07:13:18;0.80;99.90
8872;DHT22;4472;52.092;9.820;2023-03-03T07:16:11;0.90;99.90
8872;DHT22;4472;52.092;9.820;2023-03-03T07:19:00;0.90;99.90
8872;DHT22;4472;52.092;9.820;2023-03-03T07:21:50;0.90;99.90
8872;DHT22;4472;52.092;9.820;2023-03-03T07:24:37;1.00;99.90
8872;DHT22;4472;52.092;9.820;2023-03-03T07:27:26;1.10;99.90
8872;DHT22;4472;52.092;9.820;2023-03-03T07:30:24;1.10;99.90
8872;DHT22;4472;52.092;9.820;2023-03-03T07:33:19;1.10;99.90
8872;DHT22;4472;52.092;9.820;2023-03-03T07:36:23;1.10;99.90
8872;DHT22;4472;52.092;9.820;2023-03-03T07:39:24;1.10;99.90
8872;DHT22;4472;52.092;9.820;2023-03-03T07:42:19;1.20;99.90
8872;DHT22;4472;52.092;9.820;2023-03-03T07:45:22;1.30;99.90
8872;DHT22;4472;52.092;9.820;2023-03-03T07:48:18;1.30;99.90
8872;DHT22;4472;52.092;9.820;2023-03-03T07:51:12;1.30;99.90
8872;DHT22;4472;52.092;9.820;2023-03-03T07:54:17;1.40;99.90
8872;DHT22;4472;52.092;9.820;2023-03-03T07:57:20;1.40;99.90
8872;DHT22;4472;52.092;9.820;2023-03-03T08:03:30;1.80;99.90
8872;DHT22;4472;52.092;9.820;2023-03-03T08:06:48;1.70;99.90
8872;DHT22;4472;52.092;9.820;2023-03-03T08:09:38;1.80;99.90
8872;DHT22;4472;52.092;9.820;2023-03-03T08:12:33;1.70;99.90
8872;DHT22;4472;52.092;9.820;2023-03-03T08:15:22;1.70;99.90
8872;DHT22;4472;52.092;9.820;2023-03-03T08:18:18;1.70;99.90
8872;DHT22;4472;52.092;9.820;2023-03-03T08:21:10;1.70;99.90
8872;DHT22;4472;52.092;9.820;2023-03-03T08:23:58;1.70;99.90
8872;DHT22;4472;52.092;9.820;2023-03-03T08:26:46;1.90;99.90
8872;DHT22;4472;52.092;9.820;2023-03-03T08:29:33;1.80;99.90
8872;DHT22;4472;52.092;9.820;2023-03-03T08:32:20;1.80;99.90
8872;DHT22;4472;52.092;9.820;2023-03-03T08:35:08;1.80;99.90
8872;DHT22;4472;52.092;9.820;2023-03-03T08:37:57;1.80;99.90
8872;DHT22;4472;52.092;9.820;2023-03-03T08:40:44;1.80;99.90
8872;DHT22;4472;52.092;9.820;2023-03-03T08:43:31;1.80;99.90
8872;DHT22;4472;52.092;9.820;2023-03-03T08:46:19;1.90;99.90
8872;DHT22;4472;52.092;9.820;2023-03-03T08:49:06;1.80;99.90
8872;DHT22;4472;52.092;9.820;2023-03-03T08:51:53;2.00;99.90
8872;DHT22;4472;52.092;9.820;2023-03-03T08:54:43;1.90;99.90
8872;DHT22;4472;52.092;9.820;2023-03-03T08:57:30;2.00;99.90
8872;DHT22;4472;52.092;9.820;2023-03-03T09:00:18;2.00;99.90
8872;DHT22;4472;52.092;9.820;2023-03-03T09:05:53;2.10;99.90
8872;DHT22;4472;52.092;9.820;2023-03-03T09:08:40;2.10;99.90
8872;DHT22;4472;52.092;9.820;2023-03-03T09:11:29;2.10;99.90
8872;DHT22;4472;52.092;9.820;2023-03-03T09:14:18;2.10;99.90
8872;DHT22;4472;52.092;9.820;2023-03-03T09:17:23;2.10;99.90
8872;DHT22;4472;52.092;9.820;2023-03-03T09:20:22;2.10;99.90
8872;DHT22;4472;52.092;9.820;2023-03-03T09:23:29;2.10;99.90
8872;DHT22;4472;52.092;9.820;2023-03-03T09:26:29;2.10;99.90
8872;DHT22;4472;52.092;9.820;2023-03-03T09:29:22;2.20;99.90
8872;DHT22;4472;52.092;9.820;2023-03-03T09:32:25;2.30;99.90
8872;DHT22;4472;52.092;9.820;2023-03-03T09:35:33;2.30;99.90
8872;DHT22;4472;52.092;9.820;2023-03-03T09:38:27;2.30;99.90
8872;DHT22;4472;52.092;9.820;2023-03-03T09:41:45;2.30;99.90
8872;DHT22;4472;52.092;9.820;2023-03-03T09:45:07;2.20;99.90
8872;DHT22;4472;52.092;9.820;2023-03-03T09:51:37;2.00;99.90
8872;DHT22;4472;52.092;9.820;2023-03-03T09:54:37;2.10;99.90
8872;DHT22;4472;52.092;9.820;2023-03-03T09:57:37;2.10;99.90
8872;DHT22;4472;52.092;9.820;2023-03-03T10:00:35;2.30;99.90
8872;DHT22;4472;52.092;9.820;2023-03-03T10:06:51;2.60;99.90
8872;DHT22;4472;52.092;9.820;2023-03-03T10:09:54;2.70;99.90
8872;DHT22;4472;52.092;9.820;2023-03-03T10:12:56;2.80;99.90
8872;DHT22;4472;52.092;9.820;2023-03-03T10:15:51;2.90;99.90
8872;DHT22;4472;52.092;9.820;2023-03-03T10:18:45;2.90;99.90
8872;DHT22;4472;52.092;9.820;2023-03-03T10:21:41;3.00;99.90
8872;DHT22;4472;52.092;9.820;2023-03-03T10:24:33;3.00;99.90
8872;DHT22;4472;52.092;9.820;2023-03-03T10:27:39;3.00;99.90
8872;DHT22;4472;52.092;9.820;2023-03-03T10:30:41;3.00;99.90
8872;DHT22;4472;52.092;9.820;2023-03-03T10:33:40;2.90;99.90
8872;DHT22;4472;52.092;9.820;2023-03-03T10:36:43;3.10;99.90
8872;DHT22;4472;52.092;9.820;2023-03-03T10:39:57;3.10;99.90
8872;DHT22;4472;52.092;9.820;2023-03-03T10:42:55;3.20;99.90
8872;DHT22;4472;52.092;9.820;2023-03-03T10:46:17;3.10;99.90
8872;DHT22;4472;52.092;9.820;2023-03-03T10:49:25;3.00;99.90
8872;DHT22;4472;52.092;9.820;2023-03-03T10:52:21;3.00;99.90
8872;DHT22;4472;52.092;9.820;2023-03-03T10:55:24;3.10;99.90
8872;DHT22;4472;52.092;9.820;2023-03-03T10:58:27;3.20;99.90
8872;DHT22;4472;52.092;9.820;2023-03-03T11:01:23;3.20;99.90
8872;DHT22;4472;52.092;9.820;2023-03-03T11:04:31;3.20;99.90
8872;DHT22;4472;52.092;9.820;2023-03-03T11:07:29;3.20;99.90
8872;DHT22;4472;52.092;9.820;2023-03-03T11:10:38;3.30;99.90
8872;DHT22;4472;52.092;9.820;2023-03-03T11:13:37;3.20;99.90
8872;DHT22;4472;52.092;9.820;2023-03-03T11:16:38;3.10;99.90
8872;DHT22;4472;52.092;9.820;2023-03-03T11:19:38;3.10;99.90
8872;DHT22;4472;52.092;9.820;2023-03-03T11:22:33;3.30;99.90
8872;DHT22;4472;52.092;9.820;2023-03-03T11:25:27;3.40;99.90
8872;DHT22;4472;52.092;9.820;2023-03-03T11:28:27;3.50;99.90
8872;DHT22;4472;52.092;9.820;2023-03-03T11:31:21;3.50;99.90
8872;DHT22;4472;52.092;9.820;2023-03-03T11:34:20;3.50;99.90
8872;DHT22;4472;52.092;9.820;2023-03-03T11:37:14;3.50;99.90
8872;DHT22;4472;52.092;9.820;2023-03-03T11:40:11;3.50;99.90
8872;DHT22;4472;52.092;9.820;2023-03-03T11:43:04;3.50;99.90
8872;DHT22;4472;52.092;9.820;2023-03-03T11:45:57;2.50;99.90
8872;DHT22;4472;52.092;9.820;2023-03-03T11:48:51;3.30;99.90
8872;DHT22;4472;52.092;9.820;2023-03-03T11:51:47;3.40;99.90
8872;DHT22;4472;52.092;9.820;2023-03-03T11:54:45;3.40;99.90
8872;DHT22;4472;52.092;9.820;2023-03-03T11:57:38;3.30;99.90
8872;DHT22;4472;52.092;9.820;2023-03-03T12:00:30;3.20;99.90
8872;DHT22;4472;52.092;9.820;2023-03-03T12:03:25;3.40;99.90
8872;DHT22;4472;52.092;9.820;2023-03-03T12:06:22;3.50;99.90
8872;DHT22;4472;52.092;9.820;2023-03-03T12:09:28;3.70;99.90
8872;DHT22;4472;52.092;9.820;2023-03-03T12:12:22;3.80;99.90
8872;DHT22;4472;52.092;9.820;2023-03-03T12:15:25;3.90;99.90
8872;DHT22;4472;52.092;9.820;2023-03-03T12:18:42;4.00;99.90
8872;DHT22;4472;52.092;9.820;2023-03-03T12:21:46;4.10;99.90
8872;DHT22;4472;52.092;9.820;2023-03-03T12:27:51;4.00;99.90
8872;DHT22;4472;52.092;9.820;2023-03-03T12:31:00;4.10;99.90
8872;DHT22;4472;52.092;9.820;2023-03-03T12:33:55;4.10;99.90
8872;DHT22;4472;52.092;9.820;2023-03-03T12:36:54;4.10;99.90
8872;DHT22;4472;52.092;9.820;2023-03-03T12:39:55;4.20;99.90
8872;DHT22;4472;52.092;9.820;2023-03-03T12:46:15;3.90;99.90
8872;DHT22;4472;52.092;9.820;2023-03-03T12:49:05;3.90;99.90
8872;DHT22;4472;52.092;9.820;2023-03-03T12:52:05;4.00;99.90
8872;DHT22;4472;52.092;9.820;2023-03-03T12:55:04;4.10;99.90
8872;DHT22;4472;52.092;9.820;2023-03-03T12:58:00;4.20;99.90
8872;DHT22;4472;52.092;9.820;2023-03-03T13:00:53;4.20;99.90
8872;DHT22;4472;52.092;9.820;2023-03-03T13:03:50;4.20;99.90
8872;DHT22;4472;52.092;9.820;2023-03-03T13:06:41;4.20;99.90
8872;DHT22;4472;52.092;9.820;2023-03-03T13:09:38;4.30;99.90
8872;DHT22;4472;52.092;9.820;2023-03-03T13:12:40;4.30;99.90
8872;DHT22;4472;52.092;9.820;2023-03-03T13:15:35;4.30;99.90
8872;DHT22;4472;52.092;9.820;2023-03-03T13:18:31;4.20;99.90
8872;DHT22;4472;52.092;9.820;2023-03-03T13:21:23;4.10;99.90
8872;DHT22;4472;52.092;9.820;2023-03-03T13:24:17;4.20;99.90
8872;DHT22;4472;52.092;9.820;2023-03-03T13:27:10;4.20;99.90
8872;DHT22;4472;52.092;9.820;2023-03-03T13:30:01;4.30;99.90
8872;DHT22;4472;52.092;9.820;2023-03-03T13:32:53;4.50;99.90
8872;DHT22;4472;52.092;9.820;2023-03-03T13:35:44;4.60;99.90
8872;DHT22;4472;52.092;9.820;2023-03-03T13:38:36;4.70;99.90
8872;DHT22;4472;52.092;9.820;2023-03-03T13:41:30;4.80;99.90
8872;DHT22;4472;52.092;9.820;2023-03-03T13:44:24;4.80;99.90
8872;DHT22;4472;52.092;9.820;2023-03-03T13:47:22;4.90;99.90
8872;DHT22;4472;52.092;9.820;2023-03-03T13:50:19;4.90;99.90
8872;DHT22;4472;52.092;9.820;2023-03-03T13:56:34;4.90;99.90
8872;DHT22;4472;52.092;9.820;2023-03-03T13:59:29;5.00;99.90
8872;DHT22;4472;52.092;9.820;2023-03-03T14:05:35;5.10;99.90
8872;DHT22;4472;52.092;9.820;2023-03-03T14:08:39;5.10;99.90
8872;DHT22;4472;52.092;9.820;2023-03-03T14:11:37;5.20;99.90
8872;DHT22;4472;52.092;9.820;2023-03-03T14:14:39;5.20;99.90
8872;DHT22;4472;52.092;9.820;2023-03-03T14:17:35;5.20;99.90
8872;DHT22;4472;52.092;9.820;2023-03-03T14:20:28;5.20;99.90
8872;DHT22;4472;52.092;9.820;2023-03-03T14:23:19;5.30;99.90
8872;DHT22;4472;52.092;9.820;2023-03-03T14:26:08;5.40;99.90
8872;DHT22;4472;52.092;9.820;2023-03-03T14:29:12;5.40;99.90
8872;DHT22;4472;52.092;9.820;2023-03-03T14:32:18;5.50;99.90
8872;DHT22;4472;52.092;9.820;2023-03-03T14:35:16;5.50;99.90
8872;DHT22;4472;52.092;9.820;2023-03-03T14:38:09;5.60;99.90
8872;DHT22;4472;52.092;9.820;2023-03-03T14:41:07;5.60;99.90
8872;DHT22;4472;52.092;9.820;2023-03-03T14:43:59;5.60;99.90
8872;DHT22;4472;52.092;9.820;2023-03-03T14:47:00;5.70;99.90
8872;DHT22;4472;52.092;9.820;2023-03-03T14:49:49;5.60;99.90
8872;DHT22;4472;52.092;9.820;2023-03-03T14:52:38;5.60;99.90
8872;DHT22;4472;52.092;9.820;2023-03-03T14:55:50;5.50;99.90
8872;DHT22;4472;52.092;9.820;2023-03-03T14:58:39;5.30;99.90
8872;DHT22;4472;52.092;9.820;2023-03-03T15:01:30;5.20;99.90
8872;DHT22;4472;52.092;9.820;2023-03-03T15:04:24;5.10;99.90
8872;DHT22;4472;52.092;9.820;2023-03-03T15:07:27;5.10;99.90
8872;DHT22;4472;52.092;9.820;2023-03-03T15:10:30;5.10;99.90
8872;DHT22;4472;52.092;9.820;2023-03-03T15:13:30;5.20;99.90
8872;DHT22;4472;52.092;9.820;2023-03-03T15:16:21;5.10;99.90
8872;DHT22;4472;52.092;9.820;2023-03-03T15:19:38;5.10;99.90
8872;DHT22;4472;52.092;9.820;2023-03-03T15:22:48;5.20;99.90
8872;DHT22;4472;52.092;9.820;2023-03-03T15:25:42;5.10;99.90
8872;DHT22;4472;52.092;9.820;2023-03-03T15:28:36;5.20;99.90
8872;DHT22;4472;52.092;9.820;2023-03-03T15:31:34;5.20;99.90
8872;DHT22;4472;52.092;9.820;2023-03-03T15:34:34;5.20;99.90
8872;DHT22;4472;52.092;9.820;2023-03-03T15:37:34;5.20;99.90
8872;DHT22;4472;52.092;9.820;2023-03-03T15:40:26;5.20;99.90
8872;DHT22;4472;52.092;9.820;2023-03-03T15:43:21;5.20;99.90
8872;DHT22;4472;52.092;9.820;2023-03-03T15:46:18;5.20;99.90
8872;DHT22;4472;52.092;9.820;2023-03-03T15:49:17;5.20;99.90
8872;DHT22;4472;52.092;9.820;2023-03-03T15:52:18;5.00;99.90
8872;DHT22;4472;52.092;9.820;2023-03-03T15:55:19;5.00;99.90
8872;DHT22;4472;52.092;9.820;2023-03-03T15:59:01;5.10;99.90
8872;DHT22;4472;52.092;9.820;2023-03-03T16:01:58;5.10;99.90
8872;DHT22;4472;52.092;9.820;2023-03-03T16:04:59;5.30;99.90
8872;DHT22;4472;52.092;9.820;2023-03-03T16:07:57;5.20;99.90
8872;DHT22;4472;52.092;9.820;2023-03-03T16:10:57;5.10;99.90
8872;DHT22;4472;52.092;9.820;2023-03-03T16:14:09;4.90;99.90
8872;DHT22;4472;52.092;9.820;2023-03-03T16:17:13;4.80;99.90
8872;DHT22;4472;52.092;9.820;2023-03-03T16:20:16;4.70;99.90
8872;DHT22;4472;52.092;9.820;2023-03-03T16:23:26;4.50;99.90
8872;DHT22;4472;52.092;9.820;2023-03-03T16:26:26;4.40;99.90
8872;DHT22;4472;52.092;9.820;2023-03-03T16:29:45;4.30;99.90
8872;DHT22;4472;52.092;9.820;2023-03-03T16:32:38;4.20;99.90
8872;DHT22;4472;52.092;9.820;2023-03-03T16:35:31;4.10;99.90
8872;DHT22;4472;52.092;9.820;2023-03-03T16:38:22;4.90;99.90
8872;DHT22;4472;52.092;9.820;2023-03-03T16:41:12;3.90;99.90
8872;DHT22;4472;52.092;9.820;2023-03-03T16:44:08;3.80;99.90
8872;DHT22;4472;52.092;9.820;2023-03-03T16:50:18;3.70;99.90
8872;DHT22;4472;52.092;9.820;2023-03-03T16:53:18;3.60;99.90
8872;DHT22;4472;52.092;9.820;2023-03-03T16:56:13;3.50;99.90
8872;DHT22;4472;52.092;9.820;2023-03-03T16:59:28;3.30;99.90
8872;DHT22;4472;52.092;9.820;2023-03-03T17:05:53;3.10;99.90
8872;DHT22;4472;52.092;9.820;2023-03-03T17:09:00;2.90;99.90
8872;DHT22;4472;52.092;9.820;2023-03-03T17:12:00;2.80;99.90
8872;DHT22;4472;52.092;9.820;2023-03-03T17:14:57;2.80;99.90
8872;DHT22;4472;52.092;9.820;2023-03-03T17:18:01;2.70;99.90
8872;DHT22;4472;52.092;9.820;2023-03-03T17:20:56;2.60;99.90
8872;DHT22;4472;52.092;9.820;2023-03-03T17:23:53;2.50;99.90
8872;DHT22;4472;52.092;9.820;2023-03-03T17:26:54;2.30;99.90
8872;DHT22;4472;52.092;9.820;2023-03-03T17:30:01;2.20;99.90
8872;DHT22;4472;52.092;9.820;2023-03-03T17:33:08;2.10;99.90
8872;DHT22;4472;52.092;9.820;2023-03-03T17:36:24;2.00;99.90
8872;DHT22;4472;52.092;9.820;2023-03-03T17:39:32;2.00;99.90
8872;DHT22;4472;52.092;9.820;2023-03-03T17:42:32;1.80;99.90
8872;DHT22;4472;52.092;9.820;2023-03-03T17:45:24;1.70;99.90
8872;DHT22;4472;52.092;9.820;2023-03-03T17:48:33;1.60;99.90
8872;DHT22;4472;52.092;9.820;2023-03-03T17:51:39;1.50;99.90
8872;DHT22;4472;52.092;9.820;2023-03-03T17:54:51;1.40;99.90
8872;DHT22;4472;52.092;9.820;2023-03-03T17:58:03;1.30;99.90
8872;DHT22;4472;52.092;9.820;2023-03-03T18:01:05;1.20;99.90
8872;DHT22;4472;52.092;9.820;2023-03-03T18:04:06;1.10;99.90
8872;DHT22;4472;52.092;9.820;2023-03-03T18:07:14;1.10;99.90
8872;DHT22;4472;52.092;9.820;2023-03-03T18:10:34;1.00;99.90
8872;DHT22;4472;52.092;9.820;2023-03-03T18:13:43;1.00;99.90
8872;DHT22;4472;52.092;9.820;2023-03-03T18:16:47;1.00;99.90
8872;DHT22;4472;52.092;9.820;2023-03-03T18:19:52;0.90;99.90
8872;DHT22;4472;52.092;9.820;2023-03-03T18:22:46;0.90;99.90
8872;DHT22;4472;52.092;9.820;2023-03-03T18:25:53;0.80;99.90
8872;DHT22;4472;52.092;9.820;2023-03-03T18:28:45;0.70;99.90
8872;DHT22;4472;52.092;9.820;2023-03-03T18:31:45;0.70;99.90
8872;DHT22;4472;52.092;9.820;2023-03-03T18:34:37;0.60;99.90
8872;DHT22;4472;52.092;9.820;2023-03-03T18:37:42;0.60;99.90
8872;DHT22;4472;52.092;9.820;2023-03-03T18:40:32;0.40;99.90
8872;DHT22;4472;52.092;9.820;2023-03-03T18:43:55;0.30;99.90
8872;DHT22;4472;52.092;9.820;2023-03-03T18:46:53;0.30;99.90
8872;DHT22;4472;52.092;9.820;2023-03-03T18:50:03;0.20;99.90
8872;DHT22;4472;52.092;9.820;2023-03-03T18:53:14;0.20;99.90
8872;DHT22;4472;52.092;9.820;2023-03-03T18:56:08;0.30;99.90
8872;DHT22;4472;52.092;9.820;2023-03-03T18:58:57;0.30;99.90
8872;DHT22;4472;52.092;9.820;2023-03-03T19:01:45;0.40;99.90
8872;DHT22;4472;52.092;9.820;2023-03-03T19:04:37;0.50;99.90
8872;DHT22;4472;52.092;9.820;2023-03-03T19:07:27;0.60;99.90
8872;DHT22;4472;52.092;9.820;2023-03-03T19:13:44;0.70;99.90
8872;DHT22;4472;52.092;9.820;2023-03-03T19:16:35;0.80;99.90
8872;DHT22;4472;52.092;9.820;2023-03-03T19:19:24;0.90;99.90
8872;DHT22;4472;52.092;9.820;2023-03-03T19:22:21;0.90;99.90
8872;DHT22;4472;52.092;9.820;2023-03-03T19:25:16;1.00;99.90
8872;DHT22;4472;52.092;9.820;2023-03-03T19:28:20;1.10;99.90
8872;DHT22;4472;52.092;9.820;2023-03-03T19:31:15;1.10;99.90
8872;DHT22;4472;52.092;9.820;2023-03-03T19:34:14;1.20;99.90
8872;DHT22;4472;52.092;9.820;2023-03-03T19:37:26;1.30;99.90
8872;DHT22;4472;52.092;9.820;2023-03-03T19:40:21;1.30;99.90
8872;DHT22;4472;52.092;9.820;2023-03-03T19:43:19;1.40;99.90
8872;DHT22;4472;52.092;9.820;2023-03-03T19:46:46;1.40;99.90
8872;DHT22;4472;52.092;9.820;2023-03-03T19:49:50;1.50;99.90
8872;DHT22;4472;52.092;9.820;2023-03-03T19:52:43;1.50;99.90
8872;DHT22;4472;52.092;9.820;2023-03-03T19:55:41;1.60;99.90